createdAt,value
2018-11-02T00:01:29.275Z,3.47
2018-11-02T00:03:57.480Z,4.53
2018-11-02T00:06:25.659Z,3.13
2018-11-02T00:08:53.960Z,4.00
2018-11-02T00:11:22.065Z,4.23
2018-11-02T00:13:51.480Z,2.50
2018-11-02T00:16:19.724Z,3.27
2018-11-02T00:18:47.808Z,4.03
2018-11-02T00:21:15.883Z,3.57
2018-11-02T00:23:43.962Z,3.10
2018-11-02T00:26:12.060Z,3.53
2018-11-02T00:28:40.121Z,3.07
2018-11-02T00:31:08.234Z,3.12
2018-11-02T00:33:36.370Z,2.43
2018-11-02T00:36:04.448Z,1.90
2018-11-02T00:38:32.544Z,2.47
2018-11-02T00:41:00.651Z,2.30
2018-11-02T00:43:28.744Z,3.17
2018-11-02T00:45:56.840Z,2.40
2018-11-02T00:48:24.936Z,2.53
2018-11-02T00:50:53.004Z,3.50
2018-11-02T00:53:21.088Z,4.80
2018-11-02T00:55:49.153Z,3.03
2018-11-02T00:58:17.280Z,2.87
2018-11-02T01:00:45.348Z,4.10
2018-11-02T01:03:13.453Z,2.85
2018-11-02T01:05:41.556Z,2.30
2018-11-02T01:08:09.641Z,2.40
2018-11-02T01:10:37.704Z,2.83
2018-11-02T01:13:05.789Z,3.23
2018-11-02T01:15:34.701Z,2.40
2018-11-02T01:18:02.837Z,2.90
2018-11-02T01:20:30.947Z,1.90
2018-11-02T01:22:58.984Z,1.90
2018-11-02T01:25:27.052Z,1.60
2018-11-02T01:27:55.112Z,2.27
2018-11-02T01:30:23.202Z,2.43
2018-11-02T01:32:51.268Z,2.47
2018-11-02T01:35:19.353Z,2.33
2018-11-02T01:37:47.440Z,2.20
2018-11-02T01:40:15.496Z,3.37
2018-11-02T01:42:43.559Z,1.70
2018-11-02T01:45:11.620Z,1.80
2018-11-02T01:47:39.751Z,2.93
2018-11-02T01:50:07.863Z,2.80
2018-11-02T01:52:35.968Z,3.10
2018-11-02T01:55:04.617Z,1.93
2018-11-02T01:57:32.689Z,6.80
2018-11-02T02:00:00.844Z,4.93
2018-11-02T02:02:28.905Z,2.00
2018-11-02T02:04:57.204Z,2.77
2018-11-02T02:07:25.272Z,2.27
2018-11-02T02:09:53.336Z,1.90
2018-11-02T02:12:21.417Z,2.60
2018-11-02T02:14:49.450Z,2.10
2018-11-02T02:17:17.502Z,1.83
2018-11-02T02:19:45.579Z,2.40
2018-11-02T02:22:13.633Z,1.90
2018-11-02T02:24:41.674Z,3.73
2018-11-02T02:27:09.746Z,3.83
2018-11-02T02:29:37.839Z,4.60
2018-11-02T02:46:19.070Z,2.10
2018-11-02T02:48:47.165Z,2.50
2018-11-02T02:51:15.304Z,2.70
2018-11-02T02:53:43.417Z,1.97
2018-11-02T02:56:11.537Z,2.17
2018-11-02T02:58:39.681Z,2.10
2018-11-02T03:01:07.802Z,2.50
2018-11-02T03:03:35.908Z,2.00
2018-11-02T03:06:04.063Z,2.60
2018-11-02T03:08:32.166Z,1.63
2018-11-02T03:11:00.541Z,2.87
2018-11-02T03:13:28.407Z,2.08
2018-11-02T03:15:56.517Z,1.90
2018-11-02T03:18:24.643Z,2.03
2018-11-02T03:20:52.739Z,1.70
2018-11-02T03:23:20.824Z,3.00
2018-11-02T03:25:48.942Z,1.77
2018-11-02T03:28:17.085Z,2.30
2018-11-02T03:30:45.242Z,2.10
2018-11-02T03:33:14.432Z,3.17
2018-11-02T03:35:42.677Z,1.60
2018-11-02T03:38:10.805Z,2.10
2018-11-02T03:40:38.913Z,1.70
2018-11-02T03:43:07.075Z,1.90
2018-11-02T03:45:35.187Z,2.02
2018-11-02T03:48:03.297Z,1.50
2018-11-02T03:50:31.428Z,1.67
2018-11-02T03:52:59.587Z,2.00
2018-11-02T03:55:27.713Z,1.77
2018-11-02T03:57:55.842Z,1.60
2018-11-02T04:00:24.336Z,1.90
2018-11-02T04:02:52.481Z,3.20
2018-11-02T04:05:20.610Z,3.30
2018-11-02T04:07:48.813Z,2.43
2018-11-02T04:10:16.982Z,2.30
2018-11-02T04:12:45.145Z,1.60
2018-11-02T04:15:13.260Z,1.67
2018-11-02T04:17:41.495Z,1.77
2018-11-02T04:20:10.007Z,2.50
2018-11-02T04:22:38.118Z,2.00
2018-11-02T04:25:06.563Z,2.43
2018-11-02T04:27:34.682Z,2.37
2018-11-02T04:30:02.733Z,5.00
2018-11-02T04:32:30.789Z,2.43
2018-11-02T04:34:58.832Z,2.80
2018-11-02T04:37:26.989Z,2.80
2018-11-02T04:39:55.522Z,1.30
2018-11-02T04:42:23.584Z,2.70
2018-11-02T04:44:51.698Z,2.40
2018-11-02T04:47:19.798Z,2.00
2018-11-02T04:49:47.889Z,1.57
2018-11-02T04:52:15.960Z,4.10
2018-11-02T04:54:44.021Z,1.60
2018-11-02T04:57:12.091Z,2.23
2018-11-02T04:59:40.204Z,3.35
2018-11-02T05:02:08.281Z,1.67
2018-11-02T05:04:36.430Z,1.60
2018-11-02T05:07:04.813Z,3.73
2018-11-02T05:09:32.948Z,2.62
2018-11-02T05:12:01.062Z,3.93
2018-11-02T05:14:29.198Z,1.57
2018-11-02T05:16:57.310Z,2.30
2018-11-02T05:19:25.455Z,2.20
2018-11-02T05:21:53.566Z,1.57
2018-11-02T05:24:21.783Z,1.90
2018-11-02T05:26:49.893Z,1.80
2018-11-02T05:29:18.294Z,1.40
2018-11-02T05:31:46.354Z,1.83
2018-11-02T05:34:14.420Z,1.70
2018-11-02T05:36:42.489Z,1.73
2018-11-02T05:39:12.287Z,3.20
2018-11-02T05:41:40.463Z,2.93
2018-11-02T05:44:08.729Z,2.30
2018-11-02T05:46:37.003Z,2.22
2018-11-02T05:49:05.276Z,4.43
2018-11-02T05:51:33.452Z,5.17
2018-11-02T05:54:01.534Z,1.77
2018-11-02T05:56:29.697Z,1.60
2018-11-02T05:58:57.758Z,2.07
2018-11-02T06:01:25.814Z,1.77
2018-11-02T06:03:53.954Z,2.30
2018-11-02T06:06:22.024Z,1.70
2018-11-02T06:08:50.142Z,7.60
2018-11-02T06:11:18.198Z,1.70
2018-11-02T06:13:46.362Z,1.70
2018-11-02T06:16:14.441Z,3.03
2018-11-02T06:18:42.573Z,2.20
2018-11-02T06:21:10.609Z,3.17
2018-11-02T06:23:38.710Z,4.58
2018-11-02T06:26:06.752Z,4.03
2018-11-02T06:28:34.884Z,2.60
2018-11-02T06:31:02.954Z,2.90
2018-11-02T06:33:31.009Z,4.70
2018-11-02T06:35:59.086Z,3.90
2018-11-02T06:38:27.216Z,4.20
2018-11-02T06:40:55.256Z,4.70
2018-11-02T06:43:23.746Z,4.97
2018-11-02T06:45:51.892Z,5.53
2018-11-02T06:48:19.936Z,4.53
2018-11-02T06:50:48.057Z,3.60
2018-11-02T06:53:16.090Z,8.97
2018-11-02T06:55:44.680Z,5.37
2018-11-02T06:58:12.724Z,7.37
2018-11-02T07:00:40.771Z,9.03
2018-11-02T07:03:08.818Z,7.67
2018-11-02T07:05:36.878Z,3.27
2018-11-02T07:08:05.232Z,3.53
2018-11-02T07:10:33.095Z,5.03
2018-11-02T07:13:01.165Z,4.60
2018-11-02T07:15:29.245Z,5.03
2018-11-02T07:17:57.302Z,3.73
2018-11-02T07:20:25.403Z,3.90
2018-11-02T07:22:53.413Z,4.10
2018-11-02T07:25:21.513Z,3.47
2018-11-02T07:27:49.574Z,4.47
2018-11-02T07:30:17.758Z,4.37
2018-11-02T07:32:46.894Z,2.50
2018-11-02T07:35:15.013Z,7.17
2018-11-02T07:37:43.219Z,3.63
2018-11-02T07:40:11.894Z,3.27
2018-11-02T07:42:40.158Z,6.90
2018-11-02T07:45:08.858Z,3.70
2018-11-02T07:47:36.992Z,3.80
2018-11-02T07:50:07.362Z,6.20
2018-11-02T07:52:35.477Z,4.03
2018-11-02T07:55:03.665Z,2.23
2018-11-02T07:57:31.790Z,6.67
2018-11-02T07:59:59.897Z,2.90
2018-11-02T08:02:28.086Z,2.10
2018-11-02T08:04:56.207Z,3.77
2018-11-02T08:07:24.341Z,4.57
2018-11-02T08:09:52.448Z,4.73
2018-11-02T08:12:20.555Z,2.10
2018-11-02T08:14:48.846Z,5.00
2018-11-02T08:17:16.983Z,2.03
2018-11-02T08:19:45.107Z,1.95
2018-11-02T08:22:13.230Z,3.40
2018-11-02T08:24:41.399Z,2.50
2018-11-02T08:27:09.494Z,3.20
2018-11-02T08:29:37.612Z,2.33
2018-11-02T08:32:05.705Z,4.43
2018-11-02T08:34:33.740Z,3.27
2018-11-02T08:37:01.799Z,2.83
2018-11-02T08:39:29.861Z,2.20
2018-11-02T08:41:58.502Z,4.50
2018-11-02T08:44:26.571Z,3.40
2018-11-02T08:46:54.690Z,2.95
2018-11-02T08:49:22.783Z,2.33
2018-11-02T08:51:50.849Z,3.10
2018-11-02T08:54:18.961Z,3.20
2018-11-02T08:56:47.715Z,2.70
2018-11-02T08:59:15.868Z,3.10
2018-11-02T09:01:43.983Z,2.53
2018-11-02T09:04:12.581Z,2.67
2018-11-02T09:06:40.761Z,4.47
2018-11-02T09:09:09.624Z,1.98
2018-11-02T09:11:37.704Z,2.10
2018-11-02T09:14:05.849Z,3.93
2018-11-02T09:16:33.900Z,5.73
2018-11-02T09:19:02.011Z,2.40
2018-11-02T09:21:31.272Z,7.73
2018-11-02T09:23:59.068Z,1.90
2018-11-02T09:26:27.250Z,3.22
2018-11-02T09:28:55.727Z,1.77
2018-11-02T09:31:23.786Z,3.63
2018-11-02T09:33:51.830Z,2.20
2018-11-02T09:36:19.926Z,4.12
2018-11-02T09:38:48.028Z,3.17
2018-11-02T09:41:16.148Z,1.98
2018-11-02T09:43:44.234Z,4.20
2018-11-02T09:46:12.278Z,3.97
2018-11-02T09:48:40.319Z,2.40
2018-11-02T09:51:08.410Z,1.90
2018-11-02T09:53:36.456Z,1.50
2018-11-02T09:56:04.617Z,2.60
2018-11-02T09:58:32.666Z,3.10
2018-11-02T10:01:00.721Z,4.07
2018-11-02T10:03:28.790Z,2.20
2018-11-02T10:05:56.829Z,2.47
2018-11-02T10:08:25.021Z,2.00
2018-11-02T10:10:54.026Z,3.00
2018-11-02T10:13:22.109Z,2.07
2018-11-02T10:15:50.178Z,2.60
2018-11-02T10:18:18.269Z,3.43
2018-11-02T10:20:46.329Z,2.40
2018-11-02T10:23:14.410Z,2.45
2018-11-02T10:25:42.499Z,2.20
2018-11-02T10:28:10.559Z,1.80
2018-11-02T10:30:38.723Z,1.57
2018-11-02T10:33:06.884Z,13.00
2018-11-02T10:35:35.052Z,3.10
2018-11-02T10:38:03.464Z,3.67
2018-11-02T10:40:33.222Z,1.80
2018-11-02T10:43:04.246Z,2.90
2018-11-02T10:45:35.336Z,3.52
2018-11-02T10:48:04.746Z,1.80
2018-11-02T10:50:32.894Z,1.83
2018-11-02T10:53:01.089Z,6.80
2018-11-02T10:55:29.330Z,2.53
2018-11-02T10:57:57.500Z,4.60
2018-11-02T11:00:31.155Z,1.43
2018-11-02T11:02:59.236Z,5.40
2018-11-02T11:05:27.457Z,1.63
2018-11-02T11:07:55.668Z,1.32
2018-11-02T11:10:23.815Z,2.77
2018-11-02T11:12:52.388Z,1.70
2018-11-02T11:15:20.182Z,1.80
2018-11-02T11:17:48.313Z,6.40
2018-11-02T11:20:16.526Z,1.97
2018-11-02T11:22:44.805Z,2.50
2018-11-02T11:25:14.432Z,2.08
2018-11-02T11:27:42.553Z,1.20
2018-11-02T11:30:13.963Z,2.90
2018-11-02T11:32:42.118Z,4.97
2018-11-02T11:35:11.922Z,4.90
2018-11-02T11:37:40.488Z,1.53
2018-11-02T11:40:10.635Z,1.50
2018-11-02T11:42:38.785Z,2.80
2018-11-02T11:45:08.202Z,4.45
2018-11-02T11:47:36.613Z,2.10
2018-11-02T11:50:08.333Z,7.00
2018-11-02T11:52:36.533Z,2.50
2018-11-02T11:55:05.052Z,3.67
2018-11-02T11:57:33.278Z,2.07
2018-11-02T12:00:01.512Z,2.03
2018-11-02T12:02:29.841Z,2.60
2018-11-02T12:04:58.014Z,3.30
2018-11-02T12:07:26.202Z,1.50
2018-11-02T12:09:54.380Z,2.30
2018-11-02T12:12:22.672Z,2.80
2018-11-02T12:14:50.877Z,6.67
2018-11-02T12:17:18.929Z,6.83
2018-11-02T12:19:46.965Z,1.60
2018-11-02T12:22:15.025Z,2.77
2018-11-02T12:24:43.209Z,4.00
2018-11-02T12:27:11.283Z,3.97
2018-11-02T12:29:39.334Z,2.23
2018-11-02T12:32:07.482Z,2.17
2018-11-02T12:34:35.589Z,4.13
2018-11-02T12:37:03.756Z,4.25
2018-11-02T12:39:31.849Z,3.13
2018-11-02T12:42:00.013Z,3.10
2018-11-02T12:44:28.106Z,5.20
2018-11-02T12:46:56.305Z,4.33
2018-11-02T12:49:24.761Z,3.93
2018-11-02T12:51:52.553Z,2.83
2018-11-02T12:54:20.699Z,3.43
2018-11-02T12:56:48.822Z,2.87
2018-11-02T12:59:16.928Z,2.95
2018-11-02T13:01:45.065Z,6.12
2018-11-02T13:04:13.180Z,2.27
2018-11-02T13:06:41.421Z,4.50
2018-11-02T13:09:10.115Z,5.03
2018-11-02T13:11:38.300Z,5.17
2018-11-02T13:14:06.406Z,2.87
2018-11-02T13:16:35.079Z,8.50
2018-11-02T13:19:04.171Z,7.10
2018-11-02T13:21:32.445Z,2.70
2018-11-02T13:24:00.835Z,2.20
2018-11-02T13:26:29.355Z,2.85
2018-11-02T13:28:57.331Z,1.87
2018-11-02T13:31:25.532Z,7.23
2018-11-02T13:33:53.577Z,5.67
2018-11-02T13:36:21.781Z,17.03
2018-11-02T13:38:49.902Z,9.03
2018-11-02T13:41:18.017Z,3.27
2018-11-02T13:43:46.462Z,6.22
2018-11-02T13:46:14.784Z,4.27
2018-11-02T13:48:43.347Z,5.30
2018-11-02T13:51:11.777Z,5.50
2018-11-02T13:53:40.232Z,7.33
2018-11-02T13:56:08.324Z,3.47
2018-11-02T13:58:36.478Z,6.55
2018-11-02T14:01:04.591Z,9.30
2018-11-02T14:03:32.747Z,6.30
2018-11-02T14:06:01.143Z,4.17
2018-11-02T14:08:29.385Z,3.10
2018-11-02T14:10:57.787Z,3.30
2018-11-02T14:13:26.436Z,3.70
2018-11-02T14:15:55.007Z,6.33
2018-11-02T14:18:23.249Z,6.33
2018-11-02T14:20:52.423Z,9.60
2018-11-02T14:23:20.598Z,5.17
2018-11-02T14:25:48.758Z,7.60
2018-11-02T14:28:17.495Z,5.63
2018-11-02T14:30:46.034Z,4.00
2018-11-02T14:33:14.273Z,6.70
2018-11-02T14:35:42.478Z,11.43
2018-11-02T14:38:10.622Z,6.03
2018-11-02T14:40:38.713Z,6.80
2018-11-02T14:43:07.446Z,17.63
2018-11-02T14:45:35.562Z,7.50
2018-11-02T14:48:03.669Z,12.70
2018-11-02T14:50:31.726Z,7.87
2018-11-02T14:52:59.806Z,11.50
2018-11-02T14:55:27.858Z,6.70
2018-11-02T14:57:55.943Z,43.73
2018-11-02T15:00:24.001Z,40.03
2018-11-02T15:02:52.480Z,35.87
2018-11-02T15:05:20.561Z,27.25
2018-11-02T15:07:48.720Z,28.05
2018-11-02T15:10:16.822Z,19.30
2018-11-02T15:12:44.985Z,21.10
2018-11-02T15:15:13.080Z,17.90
2018-11-02T15:17:41.414Z,22.60
2018-11-02T15:20:12.659Z,16.27
2018-11-02T15:22:40.818Z,17.02
2018-11-02T15:25:09.292Z,12.03
2018-11-02T15:27:37.390Z,10.83
2018-11-02T15:30:08.965Z,15.13
2018-11-02T15:32:37.285Z,11.65
2018-11-02T15:35:06.361Z,13.80
2018-11-02T15:37:34.418Z,12.30
2018-11-02T15:40:02.496Z,11.00
2018-11-02T15:42:30.594Z,9.78
2018-11-02T15:44:58.741Z,10.03
2018-11-02T15:47:26.905Z,9.60
2018-11-02T15:49:55.017Z,6.60
2018-11-02T15:52:23.186Z,9.93
2018-11-02T15:54:51.326Z,11.07
2018-11-02T15:57:19.445Z,8.10
2018-11-02T15:59:47.566Z,7.20
2018-11-02T16:02:15.686Z,19.07
2018-11-02T16:04:43.869Z,7.37
2018-11-02T16:07:12.006Z,10.30
2018-11-02T16:09:40.194Z,9.47
2018-11-02T16:12:08.410Z,11.13
2018-11-02T16:14:36.529Z,14.03
2018-11-02T16:17:05.057Z,7.17
2018-11-02T16:19:33.291Z,7.03
2018-11-02T16:22:01.418Z,8.93
2018-11-02T16:24:30.329Z,11.10
2018-11-02T16:26:58.639Z,12.17
2018-11-02T16:29:26.769Z,10.60
2018-11-02T16:31:54.880Z,10.88
2018-11-02T16:34:23.097Z,11.40
2018-11-02T16:36:52.037Z,8.10
2018-11-02T16:39:20.144Z,8.97
2018-11-02T16:41:48.252Z,11.73
2018-11-02T16:44:16.451Z,9.73
2018-11-02T16:46:44.521Z,7.70
2018-11-02T16:49:13.885Z,9.10
2018-11-02T16:51:42.434Z,8.40
2018-11-02T16:54:10.872Z,14.10
2018-11-02T16:56:39.035Z,6.30
2018-11-02T16:59:07.136Z,9.03
2018-11-02T17:01:35.298Z,6.40
2018-11-02T17:04:03.474Z,8.98
2018-11-02T17:06:31.624Z,37.93
2018-11-02T17:08:59.738Z,10.83
2018-11-02T17:11:27.902Z,21.50
2018-11-02T17:13:56.064Z,11.07
2018-11-02T17:16:24.179Z,17.33
2018-11-02T17:18:52.290Z,11.63
2018-11-02T17:21:20.489Z,10.27
2018-11-02T17:23:48.628Z,14.10
2018-11-02T17:26:16.764Z,8.73
2018-11-02T17:28:44.881Z,13.30
2018-11-02T17:31:13.018Z,13.97
2018-11-02T17:33:41.088Z,10.03
2018-11-02T17:36:09.132Z,9.50
2018-11-02T17:38:37.274Z,8.70
2018-11-02T17:41:05.994Z,9.77
2018-11-02T17:43:34.082Z,4.40
2018-11-02T17:46:02.416Z,14.93
2018-11-02T17:48:31.490Z,8.57
2018-11-02T17:51:00.875Z,7.43
2018-11-02T17:53:30.063Z,8.07
2018-11-02T17:55:58.286Z,5.37
2018-11-02T17:58:26.619Z,11.33
2018-11-02T18:00:54.801Z,7.00
2018-11-02T18:03:23.131Z,10.67
2018-11-02T18:05:51.237Z,8.67
2018-11-02T18:08:20.333Z,10.80
2018-11-02T18:10:48.853Z,21.10
2018-11-02T18:13:17.191Z,26.30
2018-11-02T18:15:45.633Z,27.30
2018-11-02T18:18:13.855Z,25.90
2018-11-02T18:20:42.108Z,31.57
2018-11-02T18:23:11.272Z,21.80
2018-11-02T18:25:39.384Z,13.63
2018-11-02T18:28:07.436Z,17.90
2018-11-02T18:30:35.511Z,9.00
2018-11-02T18:33:03.586Z,14.70
2018-11-02T18:35:31.884Z,21.63
2018-11-02T18:37:59.996Z,12.58
2018-11-02T18:40:28.440Z,12.33
2018-11-02T18:42:56.669Z,20.47
2018-11-02T18:45:24.765Z,8.80
2018-11-02T18:47:52.907Z,31.35
2018-11-02T18:50:22.251Z,24.83
2018-11-02T18:52:50.646Z,15.60
2018-11-02T18:55:19.426Z,21.97
2018-11-02T18:57:47.562Z,12.37
2018-11-02T19:00:15.903Z,10.10
2018-11-02T19:02:44.090Z,10.27
2018-11-02T19:05:16.919Z,12.30
2018-11-02T19:07:45.290Z,15.37
2018-11-02T19:10:13.428Z,8.43
2018-11-02T19:12:42.141Z,20.15
2018-11-02T19:15:14.916Z,8.90
2018-11-02T19:17:43.201Z,11.33
2018-11-02T19:20:11.962Z,16.10
2018-11-02T19:22:40.347Z,16.83
2018-11-02T19:25:09.786Z,18.60
2018-11-02T19:27:37.991Z,10.60
2018-11-02T19:30:07.759Z,15.10
2018-11-02T19:32:35.884Z,16.73
2018-11-02T19:35:04.295Z,11.03
2018-11-02T19:37:32.270Z,19.10
2018-11-02T19:40:00.473Z,14.07
2018-11-02T19:42:29.045Z,18.73
2018-11-02T19:44:57.631Z,22.00
2018-11-02T19:47:29.910Z,12.07
2018-11-02T19:49:58.023Z,11.90
2018-11-02T19:52:26.937Z,16.83
2018-11-02T19:54:55.055Z,11.63
2018-11-02T19:57:23.128Z,18.47
2018-11-02T19:59:51.174Z,18.43
2018-11-02T20:02:19.266Z,10.53
2018-11-02T20:04:47.353Z,25.30
2018-11-02T20:07:15.450Z,21.17
2018-11-02T20:09:43.521Z,18.70
2018-11-02T20:12:11.574Z,20.50
2018-11-02T20:14:39.680Z,14.73
2018-11-02T20:17:07.798Z,13.27
2018-11-02T20:19:35.896Z,14.73
2018-11-02T20:22:03.946Z,8.50
2018-11-02T20:24:32.046Z,21.80
2018-11-02T20:27:00.112Z,10.60
2018-11-02T20:29:28.213Z,13.43
2018-11-02T20:31:56.457Z,14.95
2018-11-02T20:34:24.550Z,13.03
2018-11-02T20:36:52.725Z,12.43
2018-11-02T20:39:20.983Z,8.93
2018-11-02T20:41:49.988Z,10.57
2018-11-02T20:44:18.102Z,6.77
2018-11-02T20:46:46.217Z,8.20
2018-11-02T20:49:14.428Z,14.17
2018-11-02T20:51:42.550Z,6.10
2018-11-02T20:54:10.786Z,8.85
2018-11-02T20:56:38.965Z,6.28
2018-11-02T20:59:07.077Z,6.10
2018-11-02T21:01:35.802Z,7.43
2018-11-02T21:04:03.979Z,3.90
2018-11-02T21:06:31.218Z,7.40
2018-11-02T21:08:59.537Z,6.70
2018-11-02T21:11:27.743Z,5.23
2018-11-02T21:13:55.972Z,7.00
2018-11-02T21:16:24.522Z,10.83
2018-11-02T21:18:52.876Z,9.47
2018-11-02T21:21:21.263Z,5.72
2018-11-02T21:23:49.361Z,12.40
2018-11-02T21:26:17.578Z,7.63
2018-11-02T21:28:45.726Z,5.40
2018-11-02T21:31:13.879Z,5.60
2018-11-02T21:33:42.143Z,5.70
2018-11-02T21:36:10.383Z,9.23
2018-11-02T21:38:39.087Z,4.97
2018-11-02T21:41:07.289Z,6.17
2018-11-02T21:43:35.881Z,4.90
2018-11-02T21:46:04.083Z,4.73
2018-11-02T21:48:32.638Z,6.00
2018-11-02T21:51:00.809Z,7.03
2018-11-02T21:53:28.995Z,6.10
2018-11-02T21:55:57.198Z,4.40
2018-11-02T21:58:25.640Z,4.73
2018-11-02T22:00:53.759Z,6.07
2018-11-02T22:03:21.893Z,5.00
2018-11-02T22:05:50.417Z,5.00
2018-11-02T22:08:19.485Z,4.13
2018-11-02T22:10:47.666Z,3.83
2018-11-02T22:13:15.835Z,7.50
2018-11-02T22:15:44.118Z,3.60
2018-11-02T22:18:12.276Z,9.30
2018-11-02T22:20:40.828Z,5.77
2018-11-02T22:23:08.986Z,8.73
2018-11-02T22:25:37.136Z,9.30
2018-11-02T22:28:05.667Z,3.83
2018-11-02T22:30:33.818Z,5.60
2018-11-02T22:33:03.112Z,9.23
2018-11-02T22:35:31.245Z,7.17
2018-11-02T22:37:59.352Z,4.10
2018-11-02T22:40:27.557Z,5.13
2018-11-02T22:42:55.718Z,8.30
2018-11-02T22:45:23.839Z,3.25
2018-11-02T22:47:57.266Z,9.80
2018-11-02T22:50:25.333Z,4.97
2018-11-02T22:52:53.516Z,6.10
2018-11-02T22:55:22.256Z,4.33
2018-11-02T22:57:50.345Z,7.70
2018-11-02T23:00:19.303Z,5.80
2018-11-02T23:02:48.118Z,6.23
2018-11-02T23:05:16.640Z,5.67
2018-11-02T23:07:45.079Z,7.23
2018-11-02T23:10:13.210Z,7.08
2018-11-02T23:12:41.930Z,7.77
2018-11-02T23:15:10.924Z,3.73
2018-11-02T23:17:39.358Z,5.60
2018-11-02T23:20:09.549Z,5.45
2018-11-02T23:22:37.679Z,4.40
2018-11-02T23:25:06.853Z,6.13
2018-11-02T23:27:35.235Z,5.03
2018-11-02T23:30:03.533Z,6.83
2018-11-02T23:32:31.875Z,3.93
2018-11-02T23:35:00.006Z,4.87
2018-11-02T23:37:28.220Z,3.02
2018-11-02T23:39:56.451Z,5.20
2018-11-02T23:42:24.611Z,5.27
2018-11-02T23:44:52.805Z,4.75
2018-11-02T23:47:20.929Z,5.43
2018-11-02T23:49:49.117Z,3.10
2018-11-02T23:52:17.266Z,3.43
2018-11-02T23:54:45.497Z,6.00
2018-11-02T23:57:13.680Z,9.27
2018-11-02T23:59:41.945Z,3.50
